createdAt,value
2023-09-23T00:00:26.345Z,55.37
2023-09-23T00:02:53.084Z,55.01
2023-09-23T00:05:21.247Z,55.37
2023-09-23T00:07:47.787Z,54.88
2023-09-23T00:10:14.225Z,55.73
2023-09-23T00:12:41.640Z,57.37
2023-09-23T00:15:08.780Z,56.50
2023-09-23T00:17:37.142Z,55.95
2023-09-23T00:20:16.195Z,55.75
2023-09-23T00:22:43.175Z,56.05
2023-09-23T00:25:10.612Z,56.35
2023-09-23T00:27:36.984Z,56.27
2023-09-23T00:30:06.037Z,56.44
2023-09-23T00:32:35.180Z,56.55
2023-09-23T00:35:01.631Z,58.36
2023-09-23T00:37:28.270Z,57.67
2023-09-23T00:39:54.635Z,57.23
2023-09-23T00:42:21.809Z,56.94
2023-09-23T00:44:48.249Z,57.44
2023-09-23T00:47:15.016Z,57.42
2023-09-23T00:49:45.807Z,56.84
2023-09-23T00:52:13.029Z,56.12
2023-09-23T00:54:47.211Z,54.86
2023-09-23T00:57:15.162Z,55.87
2023-09-23T00:59:41.504Z,59.17
2023-09-23T01:02:07.917Z,59.03
2023-09-23T01:04:34.944Z,58.23
2023-09-23T01:07:03.261Z,58.07
2023-09-23T01:09:31.030Z,57.52
2023-09-23T01:11:57.669Z,57.93
2023-09-23T01:14:24.072Z,58.11
2023-09-23T01:16:50.894Z,58.39
2023-09-23T01:19:17.498Z,57.61
2023-09-23T01:21:43.862Z,57.77
2023-09-23T01:24:10.235Z,57.84
2023-09-23T01:26:37.090Z,58.46
2023-09-23T01:29:05.714Z,58.15
2023-09-23T01:31:32.175Z,57.78
2023-09-23T01:33:59.273Z,56.86
2023-09-23T01:36:25.744Z,57.96
2023-09-23T01:38:52.167Z,59.92
2023-09-23T01:41:18.788Z,60.02
2023-09-23T01:43:46.108Z,59.74
2023-09-23T01:46:12.668Z,59.32
2023-09-23T01:48:39.474Z,59.15
2023-09-23T01:51:07.502Z,59.18
2023-09-23T01:53:33.925Z,59.54
2023-09-23T01:56:00.429Z,60.32
2023-09-23T01:58:26.827Z,59.90
2023-09-23T02:00:55.164Z,59.24
2023-09-23T02:03:24.076Z,59.07
2023-09-23T02:05:50.598Z,58.30
2023-09-23T02:08:17.388Z,58.13
2023-09-23T02:10:44.322Z,57.36
2023-09-23T02:13:10.702Z,58.22
2023-09-23T02:15:37.471Z,58.70
2023-09-23T02:18:05.517Z,58.25
2023-09-23T02:20:31.913Z,57.35
2023-09-23T02:22:58.274Z,57.62
2023-09-23T02:25:27.376Z,56.15
2023-09-23T02:27:53.921Z,55.36
2023-09-23T02:30:20.298Z,55.04
2023-09-23T02:32:47.906Z,55.78
2023-09-23T02:35:15.047Z,55.80
2023-09-23T02:37:41.803Z,55.21
2023-09-23T02:40:12.558Z,55.96
2023-09-23T02:42:39.963Z,56.35
2023-09-23T02:45:07.889Z,56.01
2023-09-23T02:47:34.311Z,56.44
2023-09-23T02:50:01.193Z,55.97
2023-09-23T02:52:27.637Z,55.69
2023-09-23T02:54:55.426Z,56.26
2023-09-23T02:57:22.082Z,56.76
2023-09-23T02:59:57.875Z,57.44
2023-09-23T03:02:28.709Z,56.67
2023-09-23T03:04:59.812Z,56.35
2023-09-23T03:07:35.318Z,56.75
2023-09-23T03:10:04.947Z,57.08
2023-09-23T03:12:41.944Z,57.52
2023-09-23T03:15:15.475Z,58.61
2023-09-23T03:17:51.427Z,59.04
2023-09-23T03:20:26.101Z,58.53
2023-09-23T03:22:53.585Z,57.97
2023-09-23T03:25:20.904Z,57.17
2023-09-23T03:27:48.764Z,57.85
2023-09-23T03:30:15.686Z,58.09
2023-09-23T03:32:42.134Z,55.90
2023-09-23T03:35:18.565Z,54.54
2023-09-23T03:37:48.788Z,55.03
2023-09-23T03:40:16.710Z,55.05
2023-09-23T03:42:43.140Z,55.45
2023-09-23T03:45:11.958Z,55.26
2023-09-23T03:47:38.401Z,56.31
2023-09-23T03:50:05.158Z,56.11
2023-09-23T03:52:31.689Z,56.43
2023-09-23T03:54:58.947Z,56.06
2023-09-23T03:57:25.292Z,55.48
2023-09-23T03:59:51.673Z,55.77
2023-09-23T04:02:18.091Z,55.17
2023-09-23T04:04:48.928Z,54.13
2023-09-23T04:07:17.077Z,54.85
2023-09-23T04:09:43.452Z,55.58
2023-09-23T04:12:10.179Z,55.06
2023-09-23T04:14:36.849Z,55.01
2023-09-23T04:17:04.193Z,54.36
2023-09-23T04:19:31.097Z,54.52
2023-09-23T04:21:57.898Z,54.33
2023-09-23T04:24:24.381Z,54.34
2023-09-23T04:26:50.779Z,54.84
2023-09-23T04:29:20.953Z,55.90
2023-09-23T04:31:47.622Z,55.33
2023-09-23T04:34:15.890Z,54.54
2023-09-23T04:36:42.256Z,56.40
2023-09-23T04:39:08.618Z,55.76
2023-09-23T04:41:35.150Z,55.55
2023-09-23T04:44:01.512Z,56.12
2023-09-23T04:46:33.435Z,55.41
2023-09-23T04:48:59.773Z,54.93
2023-09-23T04:51:26.912Z,54.78
2023-09-23T04:53:53.329Z,53.69
2023-09-23T04:56:20.037Z,53.84
2023-09-23T04:58:46.809Z,52.87
2023-09-23T05:01:13.484Z,52.61
2023-09-23T05:03:39.869Z,53.13
2023-09-23T05:06:07.020Z,53.41
2023-09-23T05:08:33.787Z,53.54
2023-09-23T05:11:00.181Z,53.58
2023-09-23T05:13:26.584Z,54.37
2023-09-23T05:15:53.038Z,54.07
2023-09-23T05:18:19.414Z,54.29
2023-09-23T05:20:48.779Z,53.93
2023-09-23T05:23:15.496Z,53.07
2023-09-23T05:25:42.301Z,53.45
2023-09-23T05:28:11.329Z,54.27
2023-09-23T05:30:38.051Z,53.80
2023-09-23T05:33:04.438Z,53.70
2023-09-23T05:35:30.875Z,54.26
2023-09-23T05:37:57.270Z,54.57
2023-09-23T05:40:23.664Z,52.87
2023-09-23T05:42:50.589Z,53.48
2023-09-23T05:45:17.300Z,53.56
2023-09-23T05:47:43.756Z,52.04
2023-09-23T05:50:10.373Z,51.58
2023-09-23T05:52:37.793Z,50.21
2023-09-23T05:55:05.081Z,50.07
2023-09-23T05:57:31.676Z,50.30
2023-09-23T05:59:58.028Z,52.43
2023-09-23T06:02:25.288Z,54.55
2023-09-23T06:04:51.803Z,54.53
2023-09-23T06:07:19.299Z,54.28
2023-09-23T06:09:45.672Z,53.98
2023-09-23T06:12:12.270Z,53.84
2023-09-23T06:14:38.639Z,55.00
2023-09-23T06:17:05.045Z,54.62
2023-09-23T06:19:33.451Z,53.87
2023-09-23T06:21:59.857Z,52.59
2023-09-23T06:24:26.195Z,51.15
2023-09-23T06:26:52.533Z,51.18
2023-09-23T06:29:18.909Z,50.67
2023-09-23T06:31:45.287Z,52.83
2023-09-23T06:34:11.684Z,51.57
2023-09-23T06:36:38.029Z,51.17
2023-09-23T06:39:04.393Z,51.54
2023-09-23T06:41:30.739Z,51.74
2023-09-23T06:43:57.861Z,52.83
2023-09-23T06:46:24.359Z,53.98
2023-09-23T06:48:50.765Z,55.60
2023-09-23T06:51:17.111Z,54.49
2023-09-23T06:53:44.314Z,54.47
2023-09-23T06:56:12.103Z,55.08
2023-09-23T06:58:38.674Z,53.79
2023-09-23T07:01:05.044Z,53.44
2023-09-23T07:03:31.561Z,51.04
2023-09-23T07:05:58.049Z,50.75
2023-09-23T07:08:24.462Z,50.94
2023-09-23T07:10:51.241Z,50.60
2023-09-23T07:13:17.704Z,50.76
2023-09-23T07:15:44.031Z,52.32
2023-09-23T07:18:10.639Z,52.98
2023-09-23T07:20:37.202Z,51.88
2023-09-23T07:23:03.759Z,55.08
2023-09-23T07:25:30.342Z,54.31
2023-09-23T07:28:00.548Z,53.22
2023-09-23T07:30:26.932Z,53.88
2023-09-23T07:32:53.318Z,53.40
2023-09-23T07:35:19.839Z,53.79
2023-09-23T07:37:46.237Z,54.04
2023-09-23T07:40:12.679Z,53.00
2023-09-23T07:42:39.192Z,52.68
2023-09-23T07:45:05.837Z,54.32
2023-09-23T07:47:32.920Z,53.18
2023-09-23T07:50:00.106Z,51.43
2023-09-23T07:52:26.670Z,50.38
2023-09-23T07:54:53.006Z,50.94
2023-09-23T07:57:19.373Z,51.58
2023-09-23T07:59:45.756Z,51.30
2023-09-23T08:02:12.244Z,51.07
2023-09-23T08:04:38.736Z,52.66
2023-09-23T08:07:05.214Z,53.12
2023-09-23T08:09:31.625Z,52.97
2023-09-23T08:11:58.014Z,51.57
2023-09-23T08:14:24.441Z,52.13
2023-09-23T08:16:51.916Z,52.37
2023-09-23T08:19:18.632Z,53.02
2023-09-23T08:21:46.764Z,52.75
2023-09-23T08:24:13.124Z,52.28
2023-09-23T08:26:39.457Z,51.90
2023-09-23T08:29:06.445Z,52.11
2023-09-23T08:31:32.926Z,53.27
2023-09-23T08:33:59.918Z,54.57
2023-09-23T08:36:26.320Z,52.46
2023-09-23T08:38:52.691Z,52.82
2023-09-23T08:41:22.336Z,52.75
2023-09-23T08:43:51.266Z,51.25
2023-09-23T08:46:20.932Z,50.67
2023-09-23T08:48:47.411Z,49.78
2023-09-23T08:51:14.012Z,50.25
2023-09-23T08:53:43.316Z,51.05
2023-09-23T08:56:09.830Z,51.04
2023-09-23T08:58:36.244Z,50.62
2023-09-23T09:01:02.735Z,49.80
2023-09-23T09:03:29.160Z,50.21
2023-09-23T09:05:55.684Z,50.57
2023-09-23T09:08:22.118Z,49.68
2023-09-23T09:10:48.580Z,48.63
2023-09-23T09:13:18.345Z,51.93
2023-09-23T09:15:45.398Z,49.28
2023-09-23T09:18:11.821Z,47.32
2023-09-23T09:20:38.937Z,47.99
2023-09-23T09:23:05.376Z,100.00
2023-09-23T09:25:32.539Z,100.00
2023-09-23T09:27:59.239Z,100.00
2023-09-23T09:30:25.603Z,100.00
2023-09-23T09:32:51.981Z,100.00
2023-09-23T09:35:21.356Z,51.97
2023-09-23T09:37:48.221Z,51.30
2023-09-23T09:40:22.474Z,49.79
2023-09-23T09:42:53.228Z,50.41
2023-09-23T09:45:20.522Z,49.73
2023-09-23T09:47:49.810Z,49.62
2023-09-23T09:50:16.313Z,48.46
2023-09-23T09:52:47.038Z,47.97
2023-09-23T09:55:16.089Z,47.86
2023-09-23T09:57:42.502Z,46.48
2023-09-23T10:00:16.747Z,45.63
2023-09-23T10:02:45.912Z,43.19
2023-09-23T10:05:21.492Z,44.09
2023-09-23T10:07:57.552Z,43.55
2023-09-23T10:10:33.535Z,45.07
2023-09-23T10:13:09.381Z,46.51
2023-09-23T10:15:37.359Z,42.64
2023-09-23T10:18:08.626Z,44.38
2023-09-23T10:20:35.306Z,45.04
2023-09-23T10:23:02.794Z,45.13
2023-09-23T10:25:38.812Z,45.04
2023-09-23T10:28:05.603Z,44.60
2023-09-23T10:30:33.911Z,46.30
2023-09-23T10:33:00.282Z,46.28
2023-09-23T10:35:27.886Z,45.48
2023-09-23T10:37:54.365Z,44.59
2023-09-23T10:40:21.380Z,44.03
2023-09-23T10:42:47.901Z,45.57
2023-09-23T10:45:14.511Z,42.91
2023-09-23T10:47:44.925Z,41.10
2023-09-23T10:50:11.575Z,41.16
2023-09-23T10:52:38.073Z,41.57
2023-09-23T10:55:04.583Z,41.09
2023-09-23T10:57:30.962Z,42.92
2023-09-23T10:59:57.328Z,42.98
2023-09-23T11:02:27.365Z,43.09
2023-09-23T11:04:56.923Z,44.09
2023-09-23T11:07:25.044Z,42.83
2023-09-23T11:09:51.402Z,42.63
2023-09-23T11:12:17.768Z,42.31
2023-09-23T11:14:47.137Z,42.28
2023-09-23T11:17:27.836Z,42.25
2023-09-23T11:19:54.974Z,41.77
2023-09-23T11:22:27.500Z,42.30
2023-09-23T11:24:57.445Z,42.83
2023-09-23T11:27:24.114Z,43.19
2023-09-23T11:29:50.476Z,42.43
2023-09-23T11:32:20.383Z,44.28
2023-09-23T11:34:46.765Z,44.58
2023-09-23T11:37:13.113Z,43.96
2023-09-23T11:39:39.457Z,44.27
2023-09-23T11:42:06.233Z,43.87
2023-09-23T11:44:33.198Z,43.79
2023-09-23T11:46:59.771Z,42.92
2023-09-23T11:49:26.793Z,40.78
2023-09-23T11:51:53.132Z,42.19
2023-09-23T11:54:19.528Z,40.35
2023-09-23T11:56:45.892Z,41.36
2023-09-23T11:59:13.168Z,40.45
2023-09-23T12:01:40.307Z,39.23
2023-09-23T12:04:06.819Z,40.62
2023-09-23T12:06:37.640Z,38.62
2023-09-23T12:09:04.270Z,37.55
2023-09-23T12:11:31.334Z,37.76
2023-09-23T12:13:58.023Z,38.62
2023-09-23T12:16:24.533Z,100.00
2023-09-23T12:18:50.938Z,100.00
2023-09-23T12:21:17.277Z,38.62
2023-09-23T12:23:43.716Z,38.23
2023-09-23T12:26:11.060Z,39.18
2023-09-23T12:28:37.742Z,38.60
2023-09-23T12:31:04.156Z,38.07
2023-09-23T12:33:30.518Z,36.98
2023-09-23T12:35:56.903Z,38.84
2023-09-23T12:38:23.289Z,100.00
2023-09-23T12:40:50.116Z,37.72
2023-09-23T12:43:16.449Z,37.56
2023-09-23T12:45:45.064Z,37.63
2023-09-23T12:48:11.729Z,37.96
2023-09-23T12:50:38.175Z,36.92
2023-09-23T12:53:04.698Z,36.53
2023-09-23T12:55:31.106Z,37.93
2023-09-23T12:57:57.464Z,37.71
2023-09-23T13:00:24.245Z,37.42
2023-09-23T13:02:51.480Z,36.05
2023-09-23T13:05:18.040Z,37.97
2023-09-23T13:07:44.595Z,37.93
2023-09-23T13:10:14.694Z,36.77
2023-09-23T13:12:41.405Z,36.05
2023-09-23T13:15:08.023Z,36.31
2023-09-23T13:17:34.632Z,37.22
2023-09-23T13:20:01.226Z,37.34
2023-09-23T13:22:27.895Z,39.72
2023-09-23T13:24:54.321Z,40.43
2023-09-23T13:27:21.998Z,39.53
2023-09-23T13:29:48.391Z,41.79
2023-09-23T13:32:14.754Z,40.72
2023-09-23T13:34:41.919Z,40.80
2023-09-23T13:37:08.327Z,40.24
2023-09-23T13:39:34.732Z,39.71
2023-09-23T13:42:03.555Z,39.93
2023-09-23T13:44:30.073Z,39.35
2023-09-23T13:46:56.526Z,38.16
2023-09-23T13:49:22.875Z,37.50
2023-09-23T13:51:49.235Z,38.31
2023-09-23T13:54:15.609Z,37.23
2023-09-23T13:56:42.037Z,37.12
2023-09-23T13:59:08.472Z,37.86
2023-09-23T14:01:34.860Z,36.92
2023-09-23T14:04:01.364Z,36.63
2023-09-23T14:06:27.747Z,37.19
2023-09-23T14:08:54.396Z,36.69
2023-09-23T14:11:20.798Z,36.54
2023-09-23T14:13:48.401Z,37.95
2023-09-23T14:16:14.989Z,36.85
2023-09-23T14:18:41.358Z,36.40
2023-09-23T14:21:08.427Z,37.72
2023-09-23T14:23:35.717Z,37.47
2023-09-23T14:26:02.452Z,38.31
2023-09-23T14:28:29.264Z,38.02
2023-09-23T14:30:55.774Z,38.53
2023-09-23T14:33:22.205Z,38.54
2023-09-23T14:35:48.646Z,37.49
2023-09-23T14:38:15.080Z,36.61
2023-09-23T14:40:41.533Z,36.91
2023-09-23T14:43:07.932Z,36.75
2023-09-23T14:45:34.735Z,35.95
2023-09-23T14:48:01.560Z,35.97
2023-09-23T14:50:28.006Z,36.12
2023-09-23T14:52:54.502Z,35.91
2023-09-23T14:55:21.945Z,36.44
2023-09-23T14:57:48.997Z,37.64
2023-09-23T15:00:15.402Z,37.09
2023-09-23T15:02:42.437Z,38.20
2023-09-23T15:05:09.147Z,37.80
2023-09-23T15:07:35.559Z,37.13
2023-09-23T15:10:02.031Z,37.02
2023-09-23T15:12:28.480Z,37.45
2023-09-23T15:14:54.852Z,37.98
2023-09-23T15:17:21.258Z,37.08
2023-09-23T15:19:47.663Z,37.49
2023-09-23T15:22:14.030Z,35.86
2023-09-23T15:24:44.930Z,35.98
2023-09-23T15:27:12.487Z,37.09
2023-09-23T15:29:39.251Z,36.26
2023-09-23T15:32:05.711Z,36.64
2023-09-23T15:34:32.477Z,37.01
2023-09-23T15:36:58.824Z,36.80
2023-09-23T15:39:25.160Z,37.22
2023-09-23T15:41:51.818Z,38.22
2023-09-23T15:44:18.221Z,37.51
2023-09-23T15:46:44.804Z,37.67
2023-09-23T15:49:13.216Z,38.22
2023-09-23T15:51:39.697Z,37.04
2023-09-23T15:54:06.081Z,36.88
2023-09-23T15:56:35.474Z,35.38
2023-09-23T15:59:02.319Z,35.25
2023-09-23T16:01:29.107Z,34.98
2023-09-23T16:03:55.665Z,35.24
2023-09-23T16:06:22.137Z,35.58
2023-09-23T16:08:48.734Z,35.14
2023-09-23T16:11:15.345Z,35.08
2023-09-23T16:13:41.751Z,34.98
2023-09-23T16:16:08.216Z,35.69
2023-09-23T16:18:34.720Z,35.34
2023-09-23T16:21:01.149Z,35.94
2023-09-23T16:23:27.551Z,34.88
2023-09-23T16:25:53.978Z,35.60
2023-09-23T16:28:20.577Z,38.95
2023-09-23T16:30:47.075Z,39.30
2023-09-23T16:33:13.710Z,39.20
2023-09-23T16:35:40.342Z,38.17
2023-09-23T16:38:06.767Z,38.32
2023-09-23T16:40:33.152Z,37.97
2023-09-23T16:43:01.281Z,36.71
2023-09-23T16:45:27.664Z,38.72
2023-09-23T16:47:54.132Z,40.32
2023-09-23T16:50:20.667Z,40.84
2023-09-23T16:52:47.038Z,41.72
2023-09-23T16:55:13.399Z,40.40
2023-09-23T16:57:39.746Z,40.96
2023-09-23T17:00:06.468Z,39.98
2023-09-23T17:02:32.954Z,37.78
2023-09-23T17:05:00.096Z,37.37
2023-09-23T17:07:26.897Z,36.23
2023-09-23T17:09:53.970Z,36.64
2023-09-23T17:12:20.383Z,37.72
2023-09-23T17:14:46.873Z,37.38
2023-09-23T17:17:13.470Z,36.55
2023-09-23T17:19:42.576Z,37.84
2023-09-23T17:22:10.240Z,36.93
2023-09-23T17:24:36.695Z,37.08
2023-09-23T17:27:04.247Z,36.61
2023-09-23T17:29:30.611Z,36.40
2023-09-23T17:31:57.060Z,36.96
2023-09-23T17:34:23.547Z,37.31
2023-09-23T17:36:49.971Z,36.85
2023-09-23T17:39:16.360Z,36.44
2023-09-23T17:41:42.866Z,39.11
2023-09-23T17:44:10.436Z,39.32
2023-09-23T17:46:36.989Z,39.39
2023-09-23T17:49:03.464Z,39.36
2023-09-23T17:51:29.819Z,40.06
2023-09-23T17:53:56.200Z,39.83
2023-09-23T17:56:27.030Z,39.80
2023-09-23T17:58:53.411Z,39.71
2023-09-23T18:01:19.792Z,40.44
2023-09-23T18:03:46.469Z,40.75
2023-09-23T18:06:13.741Z,40.30
2023-09-23T18:08:40.111Z,39.71
2023-09-23T18:11:07.101Z,38.87
2023-09-23T18:13:33.770Z,39.47
2023-09-23T18:16:00.213Z,39.26
2023-09-23T18:18:28.527Z,39.41
2023-09-23T18:20:55.860Z,39.93
2023-09-23T18:23:22.305Z,39.94
2023-09-23T18:25:48.726Z,39.57
2023-09-23T18:28:15.263Z,40.35
2023-09-23T18:30:41.711Z,41.40
2023-09-23T18:33:08.400Z,40.96
2023-09-23T18:35:34.914Z,40.84
2023-09-23T18:38:01.352Z,40.35
2023-09-23T18:40:27.698Z,40.12
2023-09-23T18:42:56.704Z,40.06
2023-09-23T18:45:23.202Z,41.65
2023-09-23T18:47:55.065Z,41.67
2023-09-23T18:50:29.948Z,41.86
2023-09-23T18:52:56.376Z,41.88
2023-09-23T18:55:23.881Z,41.43
2023-09-23T18:57:51.868Z,40.85
2023-09-23T19:00:19.818Z,41.00
2023-09-23T19:02:49.035Z,40.76
2023-09-23T19:05:15.770Z,41.43
2023-09-23T19:07:42.148Z,42.04
2023-09-23T19:10:08.866Z,41.99
2023-09-23T19:12:35.289Z,43.24
2023-09-23T19:15:03.075Z,42.64
2023-09-23T19:17:30.584Z,42.64
2023-09-23T19:19:56.961Z,41.52
2023-09-23T19:22:23.311Z,42.17
2023-09-23T19:24:49.698Z,42.58
2023-09-23T19:27:16.108Z,41.79
2023-09-23T19:29:42.563Z,42.80
2023-09-23T19:32:09.047Z,41.73
2023-09-23T19:34:35.427Z,42.48
2023-09-23T19:37:01.876Z,42.79
2023-09-23T19:39:29.724Z,43.54
2023-09-23T19:41:56.890Z,42.90
2023-09-23T19:44:23.325Z,42.59
2023-09-23T19:46:49.774Z,42.86
2023-09-23T19:49:17.113Z,42.53
2023-09-23T19:51:43.477Z,43.73
2023-09-23T19:54:10.956Z,45.57
2023-09-23T19:56:37.724Z,44.92
2023-09-23T19:59:04.158Z,44.04
2023-09-23T20:01:30.563Z,42.84
2023-09-23T20:03:56.946Z,42.09
2023-09-23T20:06:23.358Z,42.84
2023-09-23T20:08:49.785Z,43.71
2023-09-23T20:11:18.911Z,43.72
2023-09-23T20:13:46.421Z,43.97
2023-09-23T20:16:13.904Z,43.24
2023-09-23T20:18:40.297Z,44.10
2023-09-23T20:21:06.805Z,43.60
2023-09-23T20:23:33.425Z,44.01
2023-09-23T20:26:00.916Z,43.72
2023-09-23T20:28:27.555Z,43.60
2023-09-23T20:31:00.523Z,43.94
2023-09-23T20:33:28.002Z,100.00
2023-09-23T20:35:54.958Z,100.00
2023-09-23T20:38:21.435Z,100.00
2023-09-23T20:40:48.245Z,100.00
2023-09-23T20:43:14.690Z,100.00
2023-09-23T20:45:45.447Z,100.00
2023-09-23T20:48:11.932Z,100.00
2023-09-23T20:50:42.731Z,44.45
2023-09-23T20:53:09.203Z,44.23
2023-09-23T20:55:35.697Z,44.47
2023-09-23T20:58:07.346Z,44.70
2023-09-23T21:00:36.001Z,44.92
2023-09-23T21:03:03.332Z,45.46
2023-09-23T21:05:29.912Z,45.48
2023-09-23T21:07:56.291Z,45.75
2023-09-23T21:10:22.925Z,45.61
2023-09-23T21:12:49.679Z,44.97
2023-09-23T21:15:16.518Z,45.78
2023-09-23T21:17:44.691Z,45.15
2023-09-23T21:20:11.953Z,45.05
2023-09-23T21:22:38.563Z,45.43
2023-09-23T21:25:07.475Z,45.56
2023-09-23T21:27:34.137Z,45.93
2023-09-23T21:30:00.789Z,46.05
2023-09-23T21:32:27.453Z,46.30
2023-09-23T21:34:53.916Z,46.10
2023-09-23T21:37:20.274Z,45.83
2023-09-23T21:39:46.611Z,46.04
2023-09-23T21:42:13.105Z,45.69
2023-09-23T21:44:40.333Z,45.96
2023-09-23T21:47:06.877Z,46.19
2023-09-23T21:49:36.195Z,46.54
2023-09-23T21:52:02.572Z,46.54
2023-09-23T21:54:29.299Z,46.54
2023-09-23T21:56:55.695Z,46.00
2023-09-23T21:59:22.142Z,46.30
2023-09-23T22:01:50.196Z,46.82
2023-09-23T22:04:16.876Z,46.94
2023-09-23T22:06:43.460Z,46.80
2023-09-23T22:09:09.888Z,46.74
2023-09-23T22:11:36.321Z,46.18
2023-09-23T22:14:07.434Z,45.44
2023-09-23T22:16:39.848Z,45.48
2023-09-23T22:19:06.510Z,45.45
2023-09-23T22:21:33.151Z,45.29
2023-09-23T22:23:59.544Z,45.29
2023-09-23T22:26:25.995Z,45.30
2023-09-23T22:28:52.448Z,45.96
2023-09-23T22:31:24.557Z,46.36
2023-09-23T22:33:51.246Z,46.87
2023-09-23T22:36:18.168Z,47.32
2023-09-23T22:38:44.689Z,48.37
2023-09-23T22:41:11.080Z,48.42
2023-09-23T22:43:37.423Z,47.92
2023-09-23T22:46:03.785Z,47.53
2023-09-23T22:48:30.270Z,46.97
2023-09-23T22:50:57.334Z,46.97
2023-09-23T22:53:23.766Z,46.17
2023-09-23T22:55:50.283Z,46.22
2023-09-23T22:58:17.071Z,45.84
2023-09-23T23:00:43.542Z,45.84
2023-09-23T23:03:13.702Z,45.78
2023-09-23T23:05:41.360Z,45.27
2023-09-23T23:08:09.205Z,45.76
2023-09-23T23:10:36.274Z,46.29
2023-09-23T23:13:02.886Z,46.34
2023-09-23T23:15:29.257Z,46.48
2023-09-23T23:17:55.901Z,46.83
2023-09-23T23:20:28.714Z,47.11
2023-09-23T23:22:55.217Z,46.59
2023-09-23T23:25:21.976Z,46.66
2023-09-23T23:27:48.419Z,46.48
2023-09-23T23:30:15.338Z,46.54
2023-09-23T23:32:41.876Z,47.17
2023-09-23T23:35:08.471Z,46.95
2023-09-23T23:37:37.666Z,46.78
2023-09-23T23:40:05.765Z,46.84
2023-09-23T23:42:35.370Z,47.04
2023-09-23T23:45:01.772Z,47.03
2023-09-23T23:47:28.892Z,47.10
2023-09-23T23:49:55.361Z,46.64
2023-09-23T23:52:21.967Z,46.75
2023-09-23T23:54:48.380Z,47.08
2023-09-23T23:57:15.878Z,46.76
2023-09-23T23:59:45.504Z,47.15
